Terminal Aerodrome Forecast
Issued by NWS Cleveland, OH

Home | Current Version | Previous Version | Graphics & Text | Print | Product List | Glossary On
Versions: 1 2 3 4 5 6 7 8 9 10 11 12 13 14 15 16
936
FTUS41 KCLE 051136
TAFTOL
TAF
KTOL 051136Z 0512/0612 22005KT P6SM OVC050
     FM051300 22005KT P6SM SCT050
     FM051800 23006KT P6SM BKN100
     FM060000 26004KT P6SM OVC060
     FM060600 25004KT P6SM OVC120=

USA.gov is the U.S. government's official web portal to all federal, state and local government web resources and services.